createdAt,value
2018-03-04T00:00:29.131Z,51.03
2018-03-04T00:01:29.942Z,50.84
2018-03-04T00:02:29.027Z,50.75
2018-03-04T00:03:29.039Z,51.03
2018-03-04T00:04:29.085Z,50.75
2018-03-04T00:05:29.003Z,50.46
2018-03-04T00:06:29.000Z,50.75
2018-03-04T00:07:28.969Z,50.56
2018-03-04T00:08:29.032Z,50.75
2018-03-04T00:09:29.547Z,50.27
2018-03-04T00:10:29.684Z,50.37
2018-03-04T00:11:29.993Z,50.84
2018-03-04T00:12:29.906Z,50.84
2018-03-04T00:13:31.583Z,50.84
2018-03-04T00:14:29.932Z,50.65
2018-03-04T00:15:28.900Z,50.75
2018-03-04T00:16:29.954Z,50.46
2018-03-04T00:17:30.902Z,50.56
2018-03-04T00:18:28.884Z,50.56
2018-03-04T00:19:29.893Z,50.46
2018-03-04T00:20:28.862Z,50.37
2018-03-04T00:21:28.858Z,50.09
2018-03-04T00:22:29.101Z,50.75
2018-03-04T00:23:28.847Z,50.65
2018-03-04T00:24:28.845Z,50.56
2018-03-04T00:25:28.865Z,50.46
2018-03-04T00:26:28.776Z,51.03
2018-03-04T00:27:29.552Z,51.03
2018-03-04T00:28:28.824Z,50.94
2018-03-04T00:29:29.482Z,51.41
2018-03-04T00:30:29.412Z,51.79
2018-03-04T00:31:29.388Z,51.50
2018-03-04T00:32:29.476Z,51.60
2018-03-04T00:33:29.414Z,52.07
2018-03-04T00:34:28.800Z,51.98
2018-03-04T00:35:28.692Z,52.26
2018-03-04T00:36:28.696Z,52.17
2018-03-04T00:37:29.515Z,51.79
2018-03-04T00:38:30.466Z,51.79
2018-03-04T00:39:29.149Z,51.69
2018-03-04T00:40:28.702Z,52.07
2018-03-04T00:41:29.484Z,52.07
2018-03-04T00:42:28.727Z,51.79
2018-03-04T00:43:28.546Z,51.50
2018-03-04T00:44:28.536Z,51.32
2018-03-04T00:45:28.526Z,51.60
2018-03-04T00:46:28.514Z,51.60
2018-03-04T00:47:28.506Z,51.79
2018-03-04T00:48:28.488Z,51.69
2018-03-04T00:49:28.479Z,51.98
2018-03-04T00:50:28.464Z,52.36
2018-03-04T00:51:28.453Z,52.64
2018-03-04T00:52:28.441Z,52.07
2018-03-04T00:53:28.439Z,52.26
2018-03-04T00:54:28.422Z,52.45
2018-03-04T00:55:28.445Z,52.55
2018-03-04T00:56:28.403Z,52.17
2018-03-04T00:57:28.384Z,51.79
2018-03-04T00:58:28.397Z,51.69
2018-03-04T00:59:28.396Z,51.60
2018-03-04T01:00:28.375Z,51.79
2018-03-04T01:01:28.365Z,51.79
2018-03-04T01:02:28.327Z,51.88
2018-03-04T01:03:28.511Z,51.88
2018-03-04T01:04:28.322Z,52.55
2018-03-04T01:05:28.293Z,52.36
2018-03-04T01:06:28.338Z,52.55
2018-03-04T01:07:28.265Z,52.45
2018-03-04T01:08:28.256Z,52.92
2018-03-04T01:09:28.242Z,52.83
2018-03-04T01:10:28.297Z,52.83
2018-03-04T01:11:28.920Z,52.83
2018-03-04T01:12:28.223Z,53.02
2018-03-04T01:13:28.288Z,52.83
2018-03-04T01:14:28.223Z,52.92
2018-03-04T01:15:29.031Z,53.11
2018-03-04T01:16:28.176Z,53.39
2018-03-04T01:17:29.024Z,53.20
2018-03-04T01:18:29.058Z,52.92
2018-03-04T01:19:28.346Z,53.11
2018-03-04T01:20:28.138Z,53.87
2018-03-04T01:21:28.122Z,53.02
2018-03-04T01:22:28.112Z,53.02
2018-03-04T01:23:28.086Z,53.49
2018-03-04T01:24:28.963Z,53.49
2018-03-04T01:25:28.063Z,53.68
2018-03-04T01:26:28.077Z,53.39
2018-03-04T01:27:28.054Z,53.39
2018-03-04T01:28:28.103Z,53.02
2018-03-04T01:29:28.021Z,53.11
2018-03-04T01:30:28.051Z,52.92
2018-03-04T01:31:28.006Z,53.68
2018-03-04T01:32:27.971Z,53.87
2018-03-04T01:33:28.011Z,53.77
2018-03-04T01:34:27.957Z,53.96
2018-03-04T01:35:27.943Z,54.15
2018-03-04T01:36:28.105Z,53.87
2018-03-04T01:37:27.935Z,53.77
2018-03-04T01:38:27.980Z,53.87
2018-03-04T01:39:28.449Z,54.15
2018-03-04T01:40:27.932Z,53.87
2018-03-04T01:41:27.916Z,53.96
2018-03-04T01:42:27.966Z,53.77
2018-03-04T01:43:27.869Z,54.15
2018-03-04T01:44:27.886Z,53.77
2018-03-04T01:45:27.936Z,53.87
2018-03-04T01:46:27.897Z,53.68
2018-03-04T01:47:27.905Z,53.96
2018-03-04T01:48:27.896Z,53.49
2018-03-04T01:49:27.765Z,53.37
2018-03-04T01:50:27.781Z,53.94
2018-03-04T01:51:27.848Z,54.03
2018-03-04T01:52:28.387Z,54.13
2018-03-04T01:53:27.776Z,54.44
2018-03-04T01:54:28.421Z,54.22
2018-03-04T01:55:27.833Z,54.22
2018-03-04T01:56:27.821Z,54.32
2018-03-04T01:57:27.810Z,54.34
2018-03-04T01:58:27.719Z,54.25
2018-03-04T01:59:27.683Z,54.34
2018-03-04T02:00:27.713Z,54.25
2018-03-04T02:01:27.656Z,54.15
2018-03-04T02:02:27.672Z,54.41
2018-03-04T02:03:27.687Z,54.22
2018-03-04T02:04:28.423Z,55.26
2018-03-04T02:05:27.660Z,55.35
2018-03-04T02:06:27.627Z,55.73
2018-03-04T02:07:27.590Z,56.01
2018-03-04T02:08:27.675Z,55.63
2018-03-04T02:09:27.689Z,55.54
2018-03-04T02:10:28.642Z,56.20
2018-03-04T02:11:28.903Z,56.20
2018-03-04T02:12:27.634Z,55.73
2018-03-04T02:13:27.586Z,55.73
2018-03-04T02:14:27.519Z,56.11
2018-03-04T02:15:27.455Z,56.11
2018-03-04T02:16:27.445Z,55.63
2018-03-04T02:17:27.434Z,56.01
2018-03-04T02:18:27.420Z,56.01
2018-03-04T02:19:27.410Z,56.86
2018-03-04T02:20:27.396Z,56.67
2018-03-04T02:21:27.385Z,56.67
2018-03-04T02:22:27.374Z,56.96
2018-03-04T02:23:27.364Z,56.67
2018-03-04T02:24:27.349Z,56.58
2018-03-04T02:25:27.336Z,56.48
2018-03-04T02:26:27.328Z,57.43
2018-03-04T02:27:27.313Z,56.86
2018-03-04T02:28:27.302Z,56.96
2018-03-04T02:29:27.291Z,57.34
2018-03-04T02:30:27.277Z,57.43
2018-03-04T02:31:27.268Z,57.15
2018-03-04T02:32:27.257Z,58.00
2018-03-04T02:33:27.496Z,57.62
2018-03-04T02:34:27.341Z,57.81
2018-03-04T02:35:27.662Z,57.90
2018-03-04T02:36:27.226Z,57.62
2018-03-04T02:37:28.723Z,57.43
2018-03-04T02:38:27.192Z,57.81
2018-03-04T02:39:27.528Z,57.71
2018-03-04T02:40:27.234Z,58.09
2018-03-04T02:41:27.146Z,57.90
2018-03-04T02:42:27.134Z,57.81
2018-03-04T02:43:27.124Z,57.43
2018-03-04T02:44:27.141Z,57.43
2018-03-04T02:45:27.100Z,57.34
2018-03-04T02:46:27.092Z,57.62
2018-03-04T02:47:27.079Z,57.62
2018-03-04T02:48:27.083Z,57.62
2018-03-04T02:49:27.054Z,57.43
2018-03-04T02:50:27.043Z,57.24
2018-03-04T02:51:27.026Z,58.18
2018-03-04T02:52:27.019Z,58.09
2018-03-04T02:53:27.007Z,58.09
2018-03-04T02:54:26.991Z,57.53
2018-03-04T02:55:26.980Z,57.71
2018-03-04T02:56:26.975Z,57.71
2018-03-04T02:57:27.224Z,57.81
2018-03-04T02:58:26.944Z,57.90
2018-03-04T02:59:26.934Z,57.71
2018-03-04T03:00:26.923Z,58.00
2018-03-04T03:01:26.911Z,57.62
2018-03-04T03:02:26.897Z,58.00
2018-03-04T03:03:26.916Z,57.90
2018-03-04T03:04:26.873Z,58.00
2018-03-04T03:05:26.892Z,58.00
2018-03-04T03:06:26.848Z,57.81
2018-03-04T03:07:26.837Z,57.90
2018-03-04T03:08:26.827Z,58.94
2018-03-04T03:09:26.819Z,58.65
2018-03-04T03:10:26.805Z,58.18
2018-03-04T03:11:26.789Z,58.75
2018-03-04T03:12:26.958Z,58.56
2018-03-04T03:13:26.771Z,58.65
2018-03-04T03:14:26.764Z,58.28
2018-03-04T03:15:26.745Z,58.94
2018-03-04T03:16:26.732Z,59.13
2018-03-04T03:17:26.719Z,58.94
2018-03-04T03:18:26.706Z,59.03
2018-03-04T03:19:26.695Z,59.79
2018-03-04T03:20:26.684Z,59.51
2018-03-04T03:21:26.670Z,58.94
2018-03-04T03:22:26.673Z,58.94
2018-03-04T03:23:26.660Z,58.84
2018-03-04T03:24:26.634Z,58.84
2018-03-04T03:25:26.624Z,59.60
2018-03-04T03:26:26.610Z,59.70
2018-03-04T03:27:26.598Z,58.75
2018-03-04T03:28:26.587Z,58.65
2018-03-04T03:29:26.582Z,59.03
2018-03-04T03:30:26.563Z,58.94
2018-03-04T03:31:26.561Z,58.56
2018-03-04T03:32:26.540Z,58.47
2018-03-04T03:33:26.532Z,59.13
2018-03-04T03:34:26.517Z,59.22
2018-03-04T03:35:26.502Z,59.32
2018-03-04T03:36:26.495Z,58.65
2018-03-04T03:37:26.480Z,58.47
2018-03-04T03:38:26.472Z,59.32
2018-03-04T03:39:26.459Z,59.13
2018-03-04T03:40:26.451Z,58.56
2018-03-04T03:41:26.431Z,58.84
2018-03-04T03:42:26.420Z,58.75
2018-03-04T03:43:27.361Z,58.65
2018-03-04T03:44:26.395Z,59.32
2018-03-04T03:45:26.385Z,58.94
2018-03-04T03:46:26.372Z,59.70
2018-03-04T03:47:26.358Z,59.70
2018-03-04T03:48:26.347Z,59.51
2018-03-04T03:49:26.352Z,59.41
2018-03-04T03:50:26.324Z,59.60
2018-03-04T03:51:26.311Z,59.79
2018-03-04T03:52:26.300Z,59.79
2018-03-04T03:53:26.290Z,59.41
2018-03-04T03:54:26.282Z,59.98
2018-03-04T03:55:26.265Z,59.89
2018-03-04T03:56:26.253Z,59.70
2018-03-04T03:57:26.241Z,59.41
2018-03-04T03:58:26.228Z,59.79
2018-03-04T03:59:26.216Z,59.79
2018-03-04T04:00:26.207Z,59.79
2018-03-04T04:01:26.192Z,59.79
2018-03-04T04:02:26.181Z,59.60
2018-03-04T04:03:26.169Z,59.60
2018-03-04T04:04:26.158Z,59.79
2018-03-04T04:05:26.186Z,60.27
2018-03-04T04:06:26.132Z,61.02
2018-03-04T04:07:26.122Z,60.93
2018-03-04T04:08:26.110Z,60.83
2018-03-04T04:09:26.096Z,60.93
2018-03-04T04:10:26.085Z,61.02
2018-03-04T04:11:26.077Z,60.36
2018-03-04T04:12:26.064Z,59.98
2018-03-04T04:13:26.049Z,60.08
2018-03-04T04:14:26.061Z,60.83
2018-03-04T04:15:26.063Z,60.36
2018-03-04T04:16:26.014Z,60.17
2018-03-04T04:17:26.003Z,60.17
2018-03-04T04:18:40.960Z,60.27
2018-03-04T04:19:25.978Z,60.74
2018-03-04T04:20:25.968Z,60.83
2018-03-04T04:21:25.953Z,59.98
2018-03-04T04:22:25.941Z,60.27
2018-03-04T04:23:25.930Z,60.93
2018-03-04T04:24:25.919Z,60.46
2018-03-04T04:25:25.906Z,60.17
2018-03-04T04:26:25.896Z,60.46
2018-03-04T04:27:25.884Z,60.55
2018-03-04T04:28:25.871Z,61.02
2018-03-04T04:29:25.858Z,60.27
2018-03-04T04:30:25.847Z,60.74
2018-03-04T04:31:25.838Z,60.74
2018-03-04T04:32:25.823Z,60.36
2018-03-04T04:33:25.811Z,60.46
2018-03-04T04:34:25.803Z,59.79
2018-03-04T04:35:25.789Z,59.51
2018-03-04T04:36:25.777Z,59.70
2018-03-04T04:37:25.769Z,59.60
2018-03-04T04:38:25.753Z,59.41
2018-03-04T04:39:25.742Z,59.70
2018-03-04T04:40:25.731Z,59.79
2018-03-04T04:41:25.719Z,60.08
2018-03-04T04:42:25.706Z,60.74
2018-03-04T04:43:25.695Z,60.83
2018-03-04T04:44:26.126Z,60.46
2018-03-04T04:45:25.681Z,60.55
2018-03-04T04:46:25.658Z,60.83
2018-03-04T04:47:25.653Z,60.08
2018-03-04T04:48:25.636Z,60.93
2018-03-04T04:49:25.622Z,60.08
2018-03-04T04:50:25.613Z,59.51
2018-03-04T04:51:25.600Z,59.70
2018-03-04T04:52:25.589Z,59.79
2018-03-04T04:53:25.577Z,59.98
2018-03-04T04:54:25.565Z,59.89
2018-03-04T04:55:25.554Z,60.17
2018-03-04T04:56:25.543Z,60.27
2018-03-04T04:57:25.533Z,59.98
2018-03-04T04:58:25.518Z,59.44
2018-03-04T04:59:25.507Z,59.63
2018-03-04T05:00:25.497Z,59.82
2018-03-04T05:01:25.487Z,59.54
2018-03-04T05:02:25.472Z,59.89
2018-03-04T05:03:25.467Z,59.60
2018-03-04T05:04:25.452Z,59.79
2018-03-04T05:05:25.438Z,59.70
2018-03-04T05:06:25.427Z,60.27
2018-03-04T05:07:25.418Z,60.55
2018-03-04T05:08:25.403Z,60.83
2018-03-04T05:09:25.392Z,60.74
2018-03-04T05:10:25.381Z,60.36
2018-03-04T05:11:25.369Z,60.83
2018-03-04T05:12:25.358Z,60.93
2018-03-04T05:13:25.347Z,60.64
2018-03-04T05:14:25.334Z,60.74
2018-03-04T05:15:25.336Z,60.74
2018-03-04T05:16:25.312Z,60.64
2018-03-04T05:17:25.299Z,60.74
2018-03-04T05:18:25.312Z,60.55
2018-03-04T05:19:25.280Z,60.55
2018-03-04T05:20:25.274Z,60.55
2018-03-04T05:21:25.268Z,60.64
2018-03-04T05:22:25.244Z,60.36
2018-03-04T05:23:25.258Z,60.74
2018-03-04T05:24:25.228Z,60.64
2018-03-04T05:25:25.208Z,60.36
2018-03-04T05:26:25.198Z,60.83
2018-03-04T05:27:25.188Z,60.46
2018-03-04T05:28:25.177Z,60.49
2018-03-04T05:29:25.161Z,60.27
2018-03-04T05:30:25.156Z,60.83
2018-03-04T05:31:25.140Z,60.55
2018-03-04T05:32:25.133Z,60.74
2018-03-04T05:33:25.117Z,60.55
2018-03-04T05:34:25.106Z,60.83
2018-03-04T05:35:25.095Z,61.49
2018-03-04T05:36:25.086Z,61.49
2018-03-04T05:37:25.072Z,61.58
2018-03-04T05:38:25.059Z,60.74
2018-03-04T05:39:25.049Z,60.93
2018-03-04T05:40:25.037Z,60.64
2018-03-04T05:41:25.025Z,61.49
2018-03-04T05:42:25.017Z,61.40
2018-03-04T05:43:25.003Z,61.21
2018-03-04T05:44:24.993Z,61.30
2018-03-04T05:45:24.980Z,61.11
2018-03-04T05:46:24.968Z,61.52
2018-03-04T05:47:24.958Z,61.61
2018-03-04T05:48:24.945Z,61.40
2018-03-04T05:49:24.933Z,61.11
2018-03-04T05:50:24.923Z,60.83
2018-03-04T05:51:24.912Z,61.24
2018-03-04T05:52:24.899Z,61.43
2018-03-04T05:53:24.886Z,61.33
2018-03-04T05:54:24.875Z,61.24
2018-03-04T05:55:24.863Z,60.96
2018-03-04T05:56:24.856Z,61.33
2018-03-04T05:57:24.849Z,61.52
2018-03-04T05:58:24.840Z,61.24
2018-03-04T05:59:24.819Z,60.96
2018-03-04T06:00:24.814Z,61.15
2018-03-04T06:01:24.796Z,61.30
2018-03-04T06:02:24.785Z,61.68
2018-03-04T06:03:24.774Z,61.30
2018-03-04T06:04:24.762Z,61.87
2018-03-04T06:05:24.763Z,62.06
2018-03-04T06:06:24.738Z,62.34
2018-03-04T06:07:24.736Z,62.25
2018-03-04T06:08:24.723Z,62.34
2018-03-04T06:09:24.709Z,62.25
2018-03-04T06:10:24.703Z,62.15
2018-03-04T06:11:24.686Z,62.72
2018-03-04T06:12:24.671Z,63.00
2018-03-04T06:13:24.658Z,63.10
2018-03-04T06:14:24.651Z,62.72
2018-03-04T06:15:24.634Z,62.62
2018-03-04T06:16:25.277Z,62.62
2018-03-04T06:17:24.611Z,62.81
2018-03-04T06:18:24.600Z,62.91
2018-03-04T06:19:24.588Z,62.72
2018-03-04T06:20:24.576Z,63.10
2018-03-04T06:21:24.570Z,63.10
2018-03-04T06:22:24.553Z,63.29
2018-03-04T06:23:24.542Z,63.57
2018-03-04T06:24:24.532Z,63.57
2018-03-04T06:25:24.521Z,63.67
2018-03-04T06:26:24.504Z,64.04
2018-03-04T06:27:24.492Z,63.57
2018-03-04T06:28:24.480Z,63.85
2018-03-04T06:29:24.475Z,63.85
2018-03-04T06:30:24.458Z,63.95
2018-03-04T06:31:24.444Z,63.85
2018-03-04T06:32:24.432Z,63.38
2018-03-04T06:33:24.468Z,63.57
2018-03-04T06:34:24.412Z,63.38
2018-03-04T06:35:24.396Z,63.29
2018-03-04T06:36:24.384Z,63.29
2018-03-04T06:37:24.372Z,63.29
2018-03-04T06:38:24.360Z,63.29
2018-03-04T06:39:24.353Z,63.00
2018-03-04T06:40:24.348Z,63.48
2018-03-04T06:41:24.324Z,63.19
2018-03-04T06:42:24.314Z,63.19
2018-03-04T06:43:24.302Z,63.19
2018-03-04T06:44:24.290Z,63.19
2018-03-04T06:45:24.276Z,62.91
2018-03-04T06:46:24.267Z,63.23
2018-03-04T06:47:24.254Z,63.32
2018-03-04T06:48:24.243Z,63.10
2018-03-04T06:49:24.228Z,63.51
2018-03-04T06:50:24.217Z,63.00
2018-03-04T06:51:24.206Z,63.23
2018-03-04T06:52:24.193Z,63.23
2018-03-04T06:53:24.184Z,63.51
2018-03-04T06:54:24.172Z,63.51
2018-03-04T06:55:24.157Z,63.32
2018-03-04T06:56:24.146Z,63.42
2018-03-04T06:57:24.137Z,63.13
2018-03-04T06:58:24.121Z,63.60
2018-03-04T06:59:24.109Z,63.95
2018-03-04T07:00:24.097Z,63.70
2018-03-04T07:01:24.086Z,63.89
2018-03-04T07:02:24.075Z,63.70
2018-03-04T07:03:24.063Z,63.70
2018-03-04T07:04:24.050Z,63.70
2018-03-04T07:05:24.038Z,63.60
2018-03-04T07:06:24.038Z,63.51
2018-03-04T07:07:24.020Z,63.70
2018-03-04T07:08:24.004Z,63.70
2018-03-04T07:09:23.992Z,63.70
2018-03-04T07:10:23.980Z,63.79
2018-03-04T07:11:23.968Z,63.98
2018-03-04T07:12:23.956Z,63.51
2018-03-04T07:13:23.946Z,63.98
2018-03-04T07:14:23.933Z,64.17
2018-03-04T07:15:23.920Z,63.98
2018-03-04T07:16:23.908Z,63.89
2018-03-04T07:17:24.059Z,64.17
2018-03-04T07:18:23.888Z,64.45
2018-03-04T07:19:23.874Z,64.45
2018-03-04T07:20:23.861Z,64.45
2018-03-04T07:21:23.850Z,64.36
2018-03-04T07:22:23.843Z,64.26
2018-03-04T07:23:23.836Z,64.45
2018-03-04T07:24:23.816Z,64.26
2018-03-04T07:25:23.803Z,63.89
2018-03-04T07:26:23.792Z,63.70
2018-03-04T07:27:23.787Z,63.70
2018-03-04T07:28:23.871Z,63.51
2018-03-04T07:29:24.429Z,63.42
2018-03-04T07:30:24.871Z,64.07
2018-03-04T07:31:23.744Z,63.32
2018-03-04T07:32:23.727Z,63.60
2018-03-04T07:33:23.735Z,63.70
2018-03-04T07:34:23.704Z,62.94
2018-03-04T07:35:23.691Z,63.51
2018-03-04T07:36:23.681Z,63.51
2018-03-04T07:37:23.668Z,63.26
2018-03-04T07:38:23.655Z,63.16
2018-03-04T07:39:23.644Z,63.54
2018-03-04T07:40:23.633Z,63.45
2018-03-04T07:41:23.622Z,63.64
2018-03-04T07:42:23.610Z,63.26
2018-03-04T07:43:23.604Z,64.01
2018-03-04T07:44:23.591Z,63.73
2018-03-04T07:45:23.578Z,64.01
2018-03-04T07:46:23.567Z,63.35
2018-03-04T07:47:23.560Z,63.35
2018-03-04T07:48:24.436Z,63.92
2018-03-04T07:49:23.562Z,64.01
2018-03-04T07:50:23.523Z,64.20
2018-03-04T07:51:23.515Z,63.45
2018-03-04T07:52:23.511Z,64.11
2018-03-04T07:53:23.491Z,63.92
2018-03-04T07:54:23.482Z,63.07
2018-03-04T07:55:23.476Z,63.73
2018-03-04T07:56:23.461Z,63.73
2018-03-04T07:57:23.456Z,63.73
2018-03-04T07:58:23.441Z,63.73
2018-03-04T07:59:23.429Z,63.92
2018-03-04T08:00:23.420Z,63.57
2018-03-04T08:01:23.408Z,63.76
2018-03-04T08:02:23.403Z,63.57
2018-03-04T08:03:23.389Z,64.04
2018-03-04T08:04:23.380Z,64.23
2018-03-04T08:05:23.369Z,64.61
2018-03-04T08:06:23.358Z,64.42
2018-03-04T08:07:23.349Z,64.04
2018-03-04T08:08:23.338Z,64.61
2018-03-04T08:09:23.329Z,65.18
2018-03-04T08:10:23.320Z,64.71
2018-03-04T08:11:23.340Z,65.09
2018-03-04T08:12:23.303Z,65.47
2018-03-04T08:13:23.288Z,65.75
2018-03-04T08:14:23.278Z,66.03
2018-03-04T08:15:23.275Z,66.22
2018-03-04T08:16:23.259Z,66.41
2018-03-04T08:17:23.253Z,66.03
2018-03-04T08:18:23.241Z,66.13
2018-03-04T08:19:23.333Z,66.41
2018-03-04T08:20:23.221Z,66.31
2018-03-04T08:21:23.219Z,66.69
2018-03-04T08:22:23.200Z,66.69
2018-03-04T08:23:23.191Z,67.26
2018-03-04T08:24:23.185Z,67.07
2018-03-04T08:25:23.172Z,66.88
2018-03-04T08:26:23.162Z,67.07
2018-03-04T08:27:23.155Z,67.83
2018-03-04T08:28:23.142Z,68.02
2018-03-04T08:29:23.153Z,68.15
2018-03-04T08:30:23.123Z,67.93
2018-03-04T08:31:23.114Z,67.58
2018-03-04T08:32:23.107Z,68.24
2018-03-04T08:33:23.094Z,68.15
2018-03-04T08:34:23.084Z,67.77
2018-03-04T08:35:23.075Z,67.49
2018-03-04T08:36:23.066Z,67.11
2018-03-04T08:37:23.055Z,67.01
2018-03-04T08:38:23.046Z,67.39
2018-03-04T08:39:23.047Z,66.82
2018-03-04T08:40:23.051Z,66.92
2018-03-04T08:41:23.017Z,66.95
2018-03-04T08:42:23.017Z,66.76
2018-03-04T08:43:22.999Z,66.28
2018-03-04T08:44:22.994Z,66.38
2018-03-04T08:45:22.980Z,66.19
2018-03-04T08:46:22.977Z,65.72
2018-03-04T08:47:22.964Z,66.28
2018-03-04T08:48:22.956Z,65.72
2018-03-04T08:49:23.218Z,65.63
2018-03-04T08:50:22.953Z,65.63
2018-03-04T08:51:22.944Z,65.91
2018-03-04T08:52:22.919Z,65.25
2018-03-04T08:53:22.909Z,65.72
2018-03-04T08:54:22.901Z,65.44
2018-03-04T08:55:22.892Z,65.47
2018-03-04T08:56:22.883Z,65.06
2018-03-04T08:57:22.876Z,65.47
2018-03-04T08:58:22.865Z,65.28
2018-03-04T08:59:22.862Z,65.28
2018-03-04T09:00:22.869Z,65.09
2018-03-04T09:01:22.840Z,64.81
2018-03-04T09:02:22.836Z,64.71
2018-03-04T09:03:22.824Z,64.33
2018-03-04T09:04:22.821Z,64.33
2018-03-04T09:05:22.808Z,64.33
2018-03-04T09:06:22.803Z,64.81
2018-03-04T09:07:22.791Z,64.55
2018-03-04T09:08:22.783Z,64.42
2018-03-04T09:09:22.779Z,64.46
2018-03-04T09:10:22.767Z,64.52
2018-03-04T09:11:22.759Z,64.36
2018-03-04T09:12:22.753Z,64.55
2018-03-04T09:13:22.745Z,64.55
2018-03-04T09:14:22.735Z,64.93
2018-03-04T09:15:22.728Z,64.84
2018-03-04T09:16:22.719Z,65.09
2018-03-04T09:17:22.712Z,65.12
2018-03-04T09:18:22.705Z,65.59
2018-03-04T09:19:22.699Z,65.69
2018-03-04T09:20:23.598Z,65.22
2018-03-04T09:21:22.682Z,65.31
2018-03-04T09:22:22.674Z,64.65
2018-03-04T09:23:22.665Z,64.74
2018-03-04T09:24:22.658Z,65.12
2018-03-04T09:25:22.650Z,65.22
2018-03-04T09:26:22.645Z,65.41
2018-03-04T09:27:22.638Z,65.31
2018-03-04T09:28:22.627Z,65.50
2018-03-04T09:29:22.626Z,65.69
2018-03-04T09:30:22.616Z,65.59
2018-03-04T09:31:22.605Z,65.78
2018-03-04T09:32:22.600Z,65.88
2018-03-04T09:33:22.623Z,66.64
2018-03-04T09:34:22.584Z,66.26
2018-03-04T09:35:22.572Z,65.97
2018-03-04T09:36:22.570Z,66.26
2018-03-04T09:37:22.560Z,65.78
2018-03-04T09:38:22.551Z,65.97
2018-03-04T09:39:22.553Z,66.07
2018-03-04T09:40:22.537Z,66.35
2018-03-04T09:41:22.529Z,66.26
2018-03-04T09:42:22.521Z,66.16
2018-03-04T09:43:22.547Z,66.93
2018-03-04T09:44:22.510Z,66.45
2018-03-04T09:45:22.529Z,66.26
2018-03-04T09:46:22.494Z,66.83
2018-03-04T09:47:22.492Z,66.64
2018-03-04T09:48:22.477Z,67.49
2018-03-04T09:49:22.467Z,67.58
2018-03-04T09:50:22.466Z,67.40
2018-03-04T09:51:22.454Z,67.11
2018-03-04T09:52:22.449Z,68.35
2018-03-04T09:53:22.439Z,68.06
2018-03-04T09:54:22.432Z,68.25
2018-03-04T09:55:22.431Z,68.38
2018-03-04T09:56:22.425Z,68.10
2018-03-04T09:57:22.416Z,68.38
2018-03-04T09:58:22.412Z,68.66
2018-03-04T09:59:22.397Z,68.48
2018-03-04T10:00:22.391Z,68.66
2018-03-04T10:01:22.378Z,69.04
2018-03-04T10:02:22.375Z,68.76
2018-03-04T10:03:22.365Z,69.13
2018-03-04T10:04:22.355Z,68.66
2018-03-04T10:05:22.347Z,68.66
2018-03-04T10:06:22.342Z,69.04
2018-03-04T10:07:22.334Z,69.13
2018-03-04T10:08:22.327Z,68.95
2018-03-04T10:09:22.336Z,68.66
2018-03-04T10:10:22.312Z,69.13
2018-03-04T10:11:22.304Z,68.76
2018-03-04T10:12:22.299Z,68.85
2018-03-04T10:13:22.291Z,68.57
2018-03-04T10:14:22.290Z,68.51
2018-03-04T10:15:22.276Z,68.51
2018-03-04T10:16:22.267Z,68.13
2018-03-04T10:17:22.262Z,68.04
2018-03-04T10:18:22.252Z,68.32
2018-03-04T10:19:22.246Z,67.85
2018-03-04T10:20:22.292Z,67.56
2018-03-04T10:21:22.378Z,67.27
2018-03-04T10:22:22.226Z,67.56
2018-03-04T10:23:22.220Z,67.46
2018-03-04T10:24:22.213Z,68.23
2018-03-04T10:25:22.219Z,68.23
2018-03-04T10:26:22.201Z,68.04
2018-03-04T10:27:22.195Z,68.32
2018-03-04T10:28:22.186Z,68.13
2018-03-04T10:29:22.181Z,68.32
2018-03-04T10:30:22.176Z,67.94
2018-03-04T10:31:22.166Z,68.13
2018-03-04T10:32:22.160Z,68.41
2018-03-04T10:33:22.153Z,68.60
2018-03-04T10:34:22.147Z,68.51
2018-03-04T10:35:22.140Z,68.92
2018-03-04T10:36:22.135Z,68.83
2018-03-04T10:37:22.130Z,68.83
2018-03-04T10:38:22.121Z,68.73
2018-03-04T10:39:22.129Z,68.73
2018-03-04T10:40:22.112Z,68.44
2018-03-04T10:41:22.103Z,68.64
2018-03-04T10:42:22.097Z,68.44
2018-03-04T10:43:22.092Z,68.44
2018-03-04T10:44:22.086Z,68.64
2018-03-04T10:45:22.081Z,68.83
2018-03-04T10:46:22.071Z,68.44
2018-03-04T10:47:22.066Z,68.64
2018-03-04T10:48:22.064Z,68.54
2018-03-04T10:49:22.054Z,68.35
2018-03-04T10:50:22.046Z,68.16
2018-03-04T10:51:22.042Z,68.26
2018-03-04T10:52:22.757Z,68.26
2018-03-04T10:53:22.031Z,67.97
2018-03-04T10:54:22.022Z,68.16
2018-03-04T10:55:22.017Z,67.69
2018-03-04T10:56:22.031Z,67.44
2018-03-04T10:57:22.012Z,67.15
2018-03-04T10:58:21.999Z,67.15
2018-03-04T10:59:21.993Z,67.53
2018-03-04T11:00:21.991Z,67.06
2018-03-04T11:01:21.981Z,66.67
2018-03-04T11:02:21.982Z,67.06
2018-03-04T11:03:22.054Z,66.67
2018-03-04T11:04:21.972Z,66.87
2018-03-04T11:05:21.976Z,66.58
2018-03-04T11:06:21.953Z,66.11
2018-03-04T11:07:21.952Z,66.61
2018-03-04T11:08:21.948Z,65.76
2018-03-04T11:09:21.939Z,65.76
2018-03-04T11:10:21.932Z,65.57
2018-03-04T11:11:21.926Z,65.38
2018-03-04T11:12:22.113Z,65.38
2018-03-04T11:13:21.956Z,65.38
2018-03-04T11:14:21.910Z,65.95
2018-03-04T11:15:21.956Z,65.28
2018-03-04T11:16:21.908Z,65.47
2018-03-04T11:17:21.899Z,65.47
2018-03-04T11:18:21.889Z,65.57
2018-03-04T11:19:21.890Z,65.19
2018-03-04T11:20:21.881Z,65.28
2018-03-04T11:21:21.873Z,64.90
2018-03-04T11:22:21.880Z,65.09
2018-03-04T11:23:21.865Z,64.72
2018-03-04T11:24:21.903Z,64.72
2018-03-04T11:25:21.855Z,65.00
2018-03-04T11:26:21.851Z,64.72
2018-03-04T11:27:21.847Z,64.90
2018-03-04T11:28:21.840Z,65.00
2018-03-04T11:29:21.842Z,65.25
2018-03-04T11:30:21.831Z,65.35
2018-03-04T11:31:21.825Z,65.38
2018-03-04T11:32:21.821Z,65.38
2018-03-04T11:33:21.816Z,65.19
2018-03-04T11:34:21.816Z,65.47
2018-03-04T11:35:21.825Z,65.00
2018-03-04T11:36:21.802Z,64.53
2018-03-04T11:37:21.799Z,64.90
2018-03-04T11:38:21.790Z,64.90
2018-03-04T11:39:21.843Z,64.34
2018-03-04T11:40:21.780Z,64.62
2018-03-04T11:41:21.779Z,64.62
2018-03-04T11:42:21.777Z,64.43
2018-03-04T11:43:21.768Z,64.72
2018-03-04T11:44:21.763Z,64.62
2018-03-04T11:45:22.386Z,64.53
2018-03-04T11:46:21.751Z,64.05
2018-03-04T11:47:21.750Z,64.05
2018-03-04T11:48:21.743Z,64.05
2018-03-04T11:49:21.737Z,63.95
2018-03-04T11:50:21.732Z,63.95
2018-03-04T11:51:21.728Z,63.76
2018-03-04T11:52:21.724Z,63.79
2018-03-04T11:53:21.720Z,62.85
2018-03-04T11:54:21.716Z,63.04
2018-03-04T11:55:21.709Z,62.46
2018-03-04T11:56:21.705Z,62.56
2018-03-04T11:57:21.700Z,62.08
2018-03-04T11:58:21.697Z,61.99
2018-03-04T11:59:21.694Z,62.08
2018-03-04T12:00:21.687Z,61.42
2018-03-04T12:01:21.682Z,61.71
2018-03-04T12:02:21.679Z,61.61
2018-03-04T12:03:21.677Z,62.18
2018-03-04T12:04:21.671Z,62.08
2018-03-04T12:05:21.665Z,61.99
2018-03-04T12:06:21.665Z,61.61
2018-03-04T12:07:21.662Z,61.71
2018-03-04T12:08:21.656Z,61.71
2018-03-04T12:09:21.650Z,61.32
2018-03-04T12:10:21.657Z,60.94
2018-03-04T12:11:21.642Z,61.04
2018-03-04T12:12:21.640Z,61.04
2018-03-04T12:13:21.637Z,61.13
2018-03-04T12:14:21.651Z,61.16
2018-03-04T12:15:21.635Z,61.07
2018-03-04T12:16:21.626Z,60.78
2018-03-04T12:17:21.624Z,60.97
2018-03-04T12:18:21.661Z,61.93
2018-03-04T12:19:21.623Z,61.74
2018-03-04T12:20:21.629Z,61.64
2018-03-04T12:21:21.600Z,61.55
2018-03-04T12:22:21.597Z,61.55
2018-03-04T12:23:21.596Z,61.35
2018-03-04T12:24:21.867Z,61.55
2018-03-04T12:25:21.630Z,61.35
2018-03-04T12:26:21.590Z,61.74
2018-03-04T12:27:21.579Z,61.55
2018-03-04T12:28:21.587Z,61.74
2018-03-04T12:29:21.629Z,61.45
2018-03-04T12:30:21.613Z,61.93
2018-03-04T12:31:22.461Z,62.02
2018-03-04T12:32:21.563Z,60.88
2018-03-04T12:33:21.573Z,61.07
2018-03-04T12:34:22.479Z,60.97
2018-03-04T12:35:21.550Z,61.07
2018-03-04T12:36:22.513Z,60.97
2018-03-04T12:37:22.895Z,60.88
2018-03-04T12:38:22.475Z,60.91
2018-03-04T12:39:21.813Z,61.19
2018-03-04T12:40:21.533Z,61.00
2018-03-04T12:41:22.465Z,60.34
2018-03-04T12:42:22.555Z,61.10
2018-03-04T12:43:21.819Z,61.00
2018-03-04T12:44:22.462Z,61.19
2018-03-04T12:45:22.662Z,60.91
2018-03-04T12:46:21.765Z,60.60
2018-03-04T12:47:22.746Z,60.97
2018-03-04T12:48:24.481Z,61.74
2018-03-04T12:49:21.502Z,61.55
2018-03-04T12:50:21.510Z,62.02
2018-03-04T12:51:22.460Z,62.12
2018-03-04T12:52:21.782Z,61.83